Tiempo atmosférico en la estación meteorológica de Caravaca de La Cruz, Murcia (643 m.)



Fecha
DESCASC
Temp. máxima en grados centígrados (hora)
DESCASC
Temp. mínima en grados centígrados (hora)
DESCASC
Temp. media en grados centígrados
DESCASC
Racha de viento máxima en m/sg (hora)
DESCASC
Velocidad máxima media en intervalos de 10 minutos(hora)
DESCASC
Precipitaciones diarias en mm
DESCASC
Precipitaciones de 00:00 a 06:00 en mm
DESCASC
Precipitaciones de 06:00 a 12:00 en mm
DESCASC
Precipitaciones de 12:00 a 18:00 en mm
DESCASC
Precipitaciones de 18:00 a 24:00 en mm
DESCASC
22-11-2020 14.8 (13:20) 2.8 (08:10) 8.8 6.11 (00:30) 4.17 (23:40) 0 0 0 0 0
21-11-2020 16.5 (13:30) 5.2 (01:20) 10.8 6.11 (15:50) 3.61 (15:40) 0 0 0 0 0
20-11-2020 17.8 (12:00) 4.8 (23:50) 11.3 8.06 (13:10) 3.89 (13:10) 0 0 0 0 0
19-11-2020 18.4 (14:20) 6.8 (00:00) 12.6 7.5 (15:10) 4.17 (04:40) 0 0 0 0 0
18-11-2020 20.4 (12:30) 7.1 (00:00) 13.7 6.11 (03:30) 4.17 (04:00) 0 0 0 0 0
17-11-2020 20.3 (13:30) 8.3 (00:00) 14.3 5.83 (05:40) 3.61 (05:40) 0 0 0 0 0
16-11-2020 23.1 (12:40) 11 (00:00) 17.1 6.67 (12:30) 3.61 (13:50) 0 0 0 0 0
15-11-2020 23.2 (14:10) 9.7 (00:00) 16.5 6.67 (07:50) 4.44 (08:10) 0 0 0 0 0
14-11-2020 18.3 (13:40) 11.7 (00:00) 15 4.72 (00:10) 3.06 (00:30) 0.6 0 0.6 0 0
13-11-2020 19.1 (13:50) 10.1 (00:00) 14.6 5.28 (15:20) 3.33 (02:00) 0 0 0 0 0
12-11-2020 17.4 (14:50) 5.2 (00:00) 11.3 6.11 (08:30) 3.89 (08:30) 0 0 0 0 0
11-11-2020 18.2 (14:20) 7.4 (00:00) 12.8 5.83 (13:40) 3.06 (12:50) 0 0 0 0 0
10-11-2020 18.8 (12:30) 9.2 (00:00) 14 5.83 (13:00) 3.06 (14:00) 0 0 0 0 0
09-11-2020 19.6 (13:20) 7.2 (00:00) 13.4 5.83 (06:30) 3.89 (02:00) 0 0 0 0 0
08-11-2020 19.2 (13:10) 6.2 (00:00) 12.7 6.11 (08:20) 3.89 (00:40) 0 0 0 0 0
07-11-2020 21 (14:00) 9.1 (00:00) 15.1 14.72 (04:40) 7.22 (03:50) 3.4 3.4 0 0 0
06-11-2020 19.4 (15:00) 11.5 (00:00) 15.4 5.83 (14:50) 2.78 (14:50) 0 0 0 0 0
05-11-2020 16.6 (14:10) 11.6 (00:00) 14.1 9.44 (13:40) 5 (13:00) 34 7.4 25.4 1.2 0
04-11-2020 18 (14:50) 10.9 (00:00) 14.4 8.61 (17:10) 4.17 (16:50) 0.8 0 0 0.6 0.2
03-11-2020 23.5 (13:10) 8.6 (00:00) 16.1 6.39 (16:00) 4.17 (03:10) 0 0 0 0 0
02-11-2020 26.2 (13:50) 8.5 (00:00) 17.4 6.39 (06:00) 4.17 (06:00) 0 0 0 0 0
01-11-2020 25.9 (13:40) 9.5 (00:00) 17.7 6.67 (01:50) 4.72 (00:30) 0 0 0 0 0
31-10-2020 24.5 (15:20) 7.2 (00:00) 15.8 6.39 (23:20) 4.44 (23:40) 0 0 0 0 0
30-10-2020 24.6 (12:10) 6.5 (00:00) 15.6 5.56 (02:10) 3.61 (02:10) 0 0 0 0 0
29-10-2020 23.3 (13:10) 6.7 (00:00) 15 6.11 (02:50) 3.89 (03:30) 0 0 0 0 0
28-10-2020 22.4 (14:20) 4 (00:00) 13.2 5.83 (14:50) 3.61 (07:00) 0 0 0 0 0
27-10-2020 19.2 (14:00) 2.1 (00:00) 10.7 6.67 (07:10) 4.17 (03:40) 0 0 0 0 0

Gráficas

Temp. máximas Temp. mínimas Temp. medias Precipitaciones Rachas de viento máximas Velocidades máximas media en intervalos de 10 minutos

Datos horarios

Fecha y hora oficial Temperatura (ºC) Velocidad del viento (km/h) Dirección del viento Racha (km/h) Dirección de racha Precipitación (mm) Presión (hPa) Tendencia (hPa) Humedad (%)
2020-11-25 23:00:00 9.2 2 Este 7 Sudeste 0 940.5 0.1 83
2020-11-25 22:00:00 9.9 4 Sudoeste 14 Sudoeste 0 940.3 0.1 83
2020-11-25 21:00:00 9.2 5 Sudoeste 12 Oeste 0 940.3 0.3 83
2020-11-25 20:00:00 9 5 Oeste 9 Oeste 0 940.4 0.6 83
2020-11-25 19:00:00 11.2 3 Norte 9 Norte 0 940.2 0.3 76
2020-11-25 18:00:00 11.9 5 Norte 13 Nordeste 0 940 -0.4 71
2020-11-25 17:00:00 12.9 5 Nordeste 16 Nordeste 0 939.8 -1.3 64
2020-11-25 16:00:00 14 7 Nordeste 18 Nordeste 0 939.9 -2.1 60
2020-11-25 15:00:00 14 5 Este 14 Nordeste 0 940.4 -2.4 57
2020-11-25 14:00:00 13.6 6 Este 19 Nordeste 0 941.1 -- 55
2020-11-25 13:00:00 13.3 10 Este 18 Este 0 942 -- 55
2020-11-25 12:00:00 13.1 9 Este 14 Este 0 942.8 -- 53
2020-11-25 11:00:00 12.5 5 Nordeste 13 Sudoeste 0 943.3 -- 53
2020-11-25 10:00:00 9.8 9 Sudoeste 20 Oeste 0 943.5 -- 61
2020-11-25 09:00:00 5.2 10 Oeste 16 Oeste 0 944 -- 76
2020-11-25 08:00:00 2.6 5 Oeste 20 Oeste 0 943.7 -- 84
2020-11-25 07:00:00 4 12 Oeste 24 Oeste 0 943.7 -- 77
2020-11-25 06:00:00 4.6 12 Oeste 18 Oeste 0 943.7 -- 78
2020-11-25 05:00:00 4.8 10 Oeste 19 Oeste 0 943.9 -- 78
2020-11-25 04:00:00 4.4 5 Oeste 18 Oeste 0 944.2 -- 79
2020-11-25 03:00:00 5.5 12 Oeste 21 Oeste 0 944.4 -- 78
2020-11-25 02:00:00 5.8 9 Oeste 17 Oeste 0 945 -- 79
2020-11-25 01:00:00 5.5 10 Oeste 15 Oeste 0 945.6 -- 82
2020-11-25 00:00:00 4.8 8 Oeste 15 Oeste 0 945.8 -- 84
2020-11-24 23:00:00 5.2 9 Oeste 15 Oeste 0 946.2 -- 83
2020-11-24 22:00:00 6 7 Oeste 14 Oeste 0 946.1 -- 81
2020-11-24 21:00:00 6.3 10 Oeste 15 Sudoeste 0 946.2 -- 83
2020-11-24 20:00:00 6.3 3 Oeste 8 Noroeste 0 946.4 -- 85
2020-11-24 19:00:00 7.3 3 Oeste 9 Noroeste 0 946.4 -- 82
2020-11-24 18:00:00 9.8 3 Noroeste 5 Noroeste 0 946.2 -- 75
2020-11-24 17:00:00 13.1 3 Este 9 Nordeste 0 946.1 -- 61
2020-11-24 16:00:00 13.3 4 Este 12 Nordeste 0 946.3 -- 59
2020-11-24 15:00:00 13.7 8 Este 14 Sudeste 0 946.8 -- 57
2020-11-24 14:00:00 13.8 5 Este 14 Este 0 947.5 -- 56
2020-11-24 13:00:00 13.3 7 Este 15 Este 0 948.2 -- 55
2020-11-24 12:00:00 12.8 8 Este 14 Este 0 949.2 -- 55
2020-11-24 11:00:00 12.2 8 Sudoeste 15 Sudoeste 0 949.6 -- 54
2020-11-24 10:00:00 7.9 6 Oeste 17 Oeste 0 949.9 -- 63
2020-11-24 09:00:00 3.6 6 Oeste 19 Oeste 0 950.1 -- 79
2020-11-24 08:00:00 2.2 13 Oeste 23 Oeste 0 949.8 -- 83
2020-11-24 07:00:00 2.5 12 Oeste 24 Oeste 0 949.7 -- 83
2020-11-24 06:00:00 3 12 Oeste 21 Oeste 0 949.7 -- 84
2020-11-24 05:00:00 3.2 14 Sudoeste 23 Sudoeste 0 950 -- 81
2020-11-24 04:00:00 3.4 12 Oeste 20 Oeste 0 950.4 -- 81
2020-11-24 03:00:00 3 5 Oeste 21 Oeste 0 950.6 -- 86
2020-11-24 02:00:00 3.5 15 Oeste 22 Oeste 0 951.1 -- 80
2020-11-24 01:00:00 3.9 15 Oeste 23 Oeste 0 951.7 -- 79
2020-11-24 00:00:00 5.1 6 Oeste 16 Oeste 0 951.9 -- 79
2020-11-23 23:00:00 7.9 11 Oeste 16 Oeste 0 952 -- 79
2020-11-23 22:00:00 8.4 11 Oeste 18 Oeste 0 952.1 -- 80
2020-11-23 21:00:00 7.1 8 Sudoeste 11 Oeste 0 952 -- 79
2020-11-23 20:00:00 6.8 3 Noroeste 8 Noroeste 0 951.9 -- 77
2020-11-23 19:00:00 8.2 4 Oeste 10 Noroeste 0 951.6 -- 69
2020-11-23 18:00:00 10.5 5 Noroeste 6 Noroeste 0 951.2 -- 63
2020-11-23 17:00:00 14.5 3 Sudeste 13 Nordeste 0 950.9 -- 54
2020-11-23 16:00:00 15.2 6 Este 13 Este 0 950.9 -- 52
2020-11-23 15:00:00 15.2 5 Este 14 Este 0 951.2 -- 51
2020-11-23 14:00:00 14.9 8 Este 18 Este 0 951.7 -- 49
2020-11-23 13:00:00 17.2 5 Sudeste 14 Sudoeste 0 952.4 -- 32
2020-11-23 12:00:00 15.3 9 Sudoeste 14 Oeste 0 953.2 -- 42
2020-11-23 11:00:00 13.5 4 Sur 13 Sudoeste 0 953.8 -- 44
2020-11-23 10:00:00 8.2 9 Sudoeste 15 Oeste 0 953.5 -- 49
2020-11-23 09:00:00 3.9 11 Oeste 18 Oeste 0 953.4 -- 61
2020-11-23 08:00:00 1.8 9 Oeste 13 Oeste 0 953 -- 77
2020-11-23 07:00:00 1 6 Oeste 17 Oeste 0 952.6 -- 84
2020-11-23 06:00:00 2.7 15 Oeste 22 Oeste 0 952.3 -- 67
2020-11-23 05:00:00 3.1 14 Oeste 22 Sudoeste 0 952.3 -- 69
2020-11-23 04:00:00 3.8 10 Oeste 16 Sudoeste 0 952.5 -- 71
2020-11-23 03:00:00 2.8 5 Oeste 12 Oeste 0 952.5 -- 84
2020-11-23 02:00:00 3.2 4 Oeste 18 Oeste 0 952.4 -- 82
2020-11-23 01:00:00 4 5 Oeste 19 Oeste 0 952.7 -- 81
2020-11-23 00:00:00 5.2 11 Oeste 21 Sudoeste 0 952.7 -- 75
2020-11-22 23:00:00 5.5 5 Oeste 15 Sudoeste 0 952.6 -- 81
2020-11-22 22:00:00 6.9 7 Oeste 13 Oeste 0 952.6 -- 80
2020-11-22 21:00:00 5.8 3 Sudoeste 8 Noroeste 0 952.5 -- 84
2020-11-22 20:00:00 6.6 5 Oeste 7 Noroeste 0 952.4 -- 82
2020-11-22 19:00:00 7.6 2 Sudoeste 6 Noroeste 0 951.9 -- 78
2020-11-22 18:00:00 10.1 5 Noroeste 11 Noroeste 0 951.3 -- 66
2020-11-22 17:00:00 14 0 Calma 10 Este 0 951.1 -- 55
2020-11-22 16:00:00 14.6 5 Sudeste 12 Este 0 951 -- 49
2020-11-22 15:00:00 14.4 5 Sudeste 14 Este 0 951.4 -- 46
2020-11-22 14:00:00 14.4 7 Este 14 Sudeste 0 951.9 -- 47
2020-11-22 13:00:00 14.5 6 Este 12 Este 0 952.7 -- 48
2020-11-22 12:00:00 13.9 4 Sudeste 10 Sudeste 0 953.4 -- 51
2020-11-22 11:00:00 11.7 5 Este 9 Sudoeste 0 953.9 -- 60
2020-11-22 10:00:00 8.5 7 Sudoeste 17 Oeste 0 953.8 -- 65
2020-11-22 09:00:00 4.7 9 Oeste 18 Oeste 0 953.6 -- 75
2020-11-22 08:00:00 3 13 Oeste 21 Sudoeste 0 953.2 -- 82
2020-11-22 07:00:00 4.1 7 Oeste 18 Sudoeste 0 952.9 -- 85
2020-11-22 06:00:00 5.1 9 Sudoeste 19 Oeste 0 952.9 -- 86
2020-11-22 05:00:00 5.5 8 Sudoeste 15 Oeste 0 952.8 -- 87
2020-11-22 04:00:00 4.5 12 Oeste 17 Sudoeste 0 952.9 -- 87
2020-11-22 03:00:00 3.6 9 Oeste 12 Oeste 0 953.1 -- 88
2020-11-22 02:00:00 4.1 2 Oeste 18 Sudoeste 0 953.4 -- 84
2020-11-22 01:00:00 5.4 10 Oeste 22 Oeste 0 954.1 -- 81
2020-11-22 00:00:00 5.8 5 Sudoeste 14 Sudoeste 0 954.1 -- 82
2020-11-21 23:00:00 6.9 8 Oeste 13 Oeste 0 954.2 -- 81
2020-11-21 22:00:00 7 8 Sudoeste 12 Sudoeste 0 954.1 -- 82
2020-11-21 21:00:00 8 6 Oeste 11 Oeste 0 954.1 -- 80
2020-11-21 20:00:00 7.9 5 Noroeste 8 Noroeste 0 953.8 -- 76
2020-11-21 19:00:00 8.9 5 Noroeste 9 Noroeste 0 953.1 -- 71
2020-11-21 18:00:00 11.3 5 Noroeste 13 Nordeste 0 952.4 -- 63
2020-11-21 17:00:00 13.7 9 Este 21 Nordeste 0 952.3 -- 51
2020-11-21 16:00:00 14.7 10 Este 22 Este 0 952 -- 51
2020-11-21 15:00:00 15.5 13 Este 21 Este 0 951.9 -- 54
2020-11-21 14:00:00 16.3 8 Sudoeste 18 Sudoeste 0 952.1 -- 45
2020-11-21 13:00:00 16.1 9 Sudoeste 17 Sur 0 952.6 -- 47
2020-11-21 12:00:00 14.2 4 Este 19 Sudoeste 0 953.4 -- 59
2020-11-21 11:00:00 14.9 5 Sur 14 Sur 0 953.7 -- 56
2020-11-21 10:00:00 12 5 Sudoeste 13 Sudoeste 0 953.2 -- 66
2020-11-21 09:00:00 7.4 3 Sudoeste 8 Oeste 0 953 -- 87
2020-11-21 08:00:00 6.1 2 Nordeste 9 Oeste 0 952.3 -- 86
2020-11-21 07:00:00 8 2 Norte 5 Noroeste 0 952 -- 81
2020-11-21 06:00:00 8.5 3 Oeste 10 Sudoeste 0 952 -- 79
2020-11-21 05:00:00 8.4 2 Noroeste 14 Oeste 0 951.8 -- 78
2020-11-21 04:00:00 7.9 7 Sudoeste 16 Oeste 0 952 -- 78
2020-11-21 03:00:00 6 3 Oeste 9 Noroeste 0 951.9 -- 88
2020-11-21 02:00:00 6.4 6 Oeste 14 Oeste 0 951.6 -- 86
2020-11-21 01:00:00 5.6 3 Oeste 20 Oeste 0 952.1 -- 77
2020-11-21 00:00:00 5.7 9 Oeste 16 Oeste 0 952.3 -- 76
2020-11-20 23:00:00 5.9 4 Oeste 8 Oeste 0 952.2 -- 75
2020-11-20 22:00:00 7.7 4 Oeste 23 Oeste 0 952.1 -- 66
2020-11-20 21:00:00 8.5 9 Sudoeste 15 Oeste 0 951.9 -- 60
2020-11-20 20:00:00 9.2 3 Oeste 15 Nordeste 0 951.7 -- 62
2020-11-20 19:00:00 10 4 Noroeste 12 Noroeste 0 951.2 -- 58
2020-11-20 18:00:00 12 5 Noroeste 13 Nordeste 0 951.2 -- 56
2020-11-20 17:00:00 15.8 6 Nordeste 20 Nordeste 0 950.5 -- 38
2020-11-20 16:00:00 16.6 14 Este 24 Nordeste 0 950.7 -- 32
2020-11-20 15:00:00 17 11 Este 23 Este 0 951.2 -- 32
2020-11-20 14:00:00 17.1 12 Nordeste 29 Este 0 952.1 -- 45
2020-11-20 13:00:00 17.1 12 Nordeste 23 Nordeste 0 952.6 -- 51
2020-11-20 12:00:00 17.3 9 Este 18 Nordeste 0 953 -- 54
2020-11-20 11:00:00 16.6 3 Sur 8 Sur 0 953 -- 55
2020-11-20 10:00:00 13.9 4 Sudoeste 7 Sur 0 952.9 -- 62
2020-11-20 09:00:00 9.2 3 Oeste 14 Sudoeste 0 953 -- 81
2020-11-20 08:00:00 8 9 Oeste 17 Sudoeste 0 953 -- 82
2020-11-20 07:00:00 8.1 12 Oeste 19 Oeste 0 952.6 -- 80
2020-11-20 06:00:00 7.2 5 Oeste 16 Sudoeste 0 953.1 -- 86
2020-11-20 05:00:00 8.1 2 Norte 19 Oeste 0 953.4 -- 83
2020-11-20 04:00:00 8.4 9 Sudoeste 18 Oeste 0 953.3 -- 88
2020-11-20 03:00:00 8.1 3 Oeste 17 Oeste 0 954 -- 87
2020-11-20 02:00:00 9.3 5 Oeste 17 Oeste 0 954.3 -- 83
2020-11-20 01:00:00 8.5 5 Oeste 14 Oeste 0 954.8 -- 88
2020-11-20 00:00:00 9 8 Sudoeste 14 Sudoeste 0 955.5 -- 89
2020-11-19 23:00:00 8.9 2 Oeste 5 Sudoeste 0 955.9 -- 88
2020-11-19 22:00:00 9.7 3 Noroeste 11 Oeste 0 955.5 -- 84
2020-11-19 21:00:00 10 3 Oeste 9 Oeste 0 955.2 -- 84
2020-11-19 20:00:00 10.8 3 Sudoeste 8 Noroeste 0 955.2 -- 81
2020-11-19 19:00:00 12 6 Noroeste 9 Noroeste 0 954.6 -- 76
2020-11-19 18:00:00 14 6 Oeste 12 Nordeste 0 954.2 -- 71
2020-11-19 17:00:00 17.3 8 Nordeste 23 Nordeste 0 954.7 -- 56
2020-11-19 16:00:00 17.8 10 Este 27 Este 0 954.5 -- 54
2020-11-19 15:00:00 17.7 12 Nordeste 23 Norte 0 954.8 -- 55
2020-11-19 14:00:00 18.1 12 Nordeste 24 Nordeste 0 955.2 -- 52
2020-11-19 13:00:00 18 11 Este 21 Este 0 955.7 -- 56
2020-11-19 12:00:00 17.2 7 Este 16 Este 0 955.9 -- 59
2020-11-19 11:00:00 16.1 6 Este 10 Este 0 956 -- 60
2020-11-19 10:00:00 12.9 4 Nordeste 8 Sudoeste 0 955.3 -- 72
2020-11-19 09:00:00 8.9 2 Sudoeste 8 Sudoeste 0 955 -- 90
2020-11-19 08:00:00 6.8 2 Sudoeste 13 Oeste 0 954.2 -- 89
2020-11-19 07:00:00 7.8 8 Oeste 13 Oeste 0 953.6 -- 89
2020-11-19 06:00:00 7.7 5 Oeste 16 Sudoeste 0 953.4 -- 85
2020-11-19 05:00:00 8.6 11 Oeste 23 Oeste 0 953.2 -- 79
2020-11-19 04:00:00 8.4 5 Oeste 17 Sudoeste 0 953.2 -- 82
2020-11-19 03:00:00 9 7 Oeste 18 Oeste 0 953.1 -- 84
2020-11-19 02:00:00 8.9 12 Oeste 16 Sudoeste 0 953.4 -- 85
2020-11-19 01:00:00 8.9 4 Sudoeste 13 Oeste 0 953.4 -- 85
2020-11-19 00:00:00 10.1 13 Oeste 16 Oeste 0 953.5 -- 78
2020-11-18 23:00:00 9.8 6 Oeste 11 Oeste 0 953.4 -- 83
2020-11-18 22:00:00 11.8 9 Oeste 17 Oeste 0 953.2 -- 72
2020-11-18 21:00:00 11.4 3 Sudoeste 12 Oeste 0 953 -- 76
2020-11-18 20:00:00 12.9 7 Sudoeste 13 Noroeste 0 952.6 -- 75
2020-11-18 19:00:00 13 6 Noroeste 8 Noroeste 0 952.4 -- 77
2020-11-18 18:00:00 15.7 3 Noroeste 10 Nordeste 0 952 -- 67
2020-11-18 17:00:00 19 6 Nordeste 15 Nordeste 0 951.7 -- 54
2020-11-18 16:00:00 20 9 Este 15 Este 0 951.5 -- 46
2020-11-18 15:00:00 20.1 8 Sudeste 13 Sudeste 0 951.6 -- 47
2020-11-18 14:00:00 20.1 8 Sudeste 15 Nordeste 0 952.1 -- 47
2020-11-18 13:00:00 20.3 7 Este 12 Sudeste 0.2 952.9 -- 44
2020-11-18 12:00:00 19.6 5 Este 11 Este 0 953.5 -- 41
2020-11-18 11:00:00 18.4 4 Este 9 Sudoeste 0 953.6 -- 46
2020-11-18 10:00:00 14.3 9 Sudoeste 18 Oeste 0 953.7 -- 58
2020-11-18 09:00:00 10.2 13 Oeste 20 Oeste 0 953.3 -- 68
2020-11-18 08:00:00 7.1 4 Oeste 22 Oeste 0 952.9 -- 83
2020-11-18 07:00:00 8.1 5 Oeste 21 Oeste 0 952.6 -- 78
2020-11-18 06:00:00 8.5 12 Oeste 21 Oeste 0 952.6 -- 76
2020-11-18 05:00:00 9 12 Oeste 19 Oeste 0 952.4 -- 76
2020-11-18 04:00:00 9.8 15 Oeste 22 Oeste 0 952.7 -- 76
2020-11-18 03:00:00 9.4 10 Oeste 19 Sudoeste 0 952.8 -- 80
2020-11-18 02:00:00 10.1 14 Oeste 19 Oeste 0 952.9 -- 81
2020-11-18 01:00:00 10.4 12 Oeste 18 Oeste 0 953.1 -- 83
2020-11-18 00:00:00 10.6 3 Oeste 12 Oeste 0 953.2 -- 87
2020-11-17 23:00:00 11.8 9 Oeste 16 Sudoeste 0 953.3 -- 84
2020-11-17 22:00:00 12.8 5 Sudoeste 11 Oeste 0 953.1 -- 81
2020-11-17 21:00:00 13.9 7 Oeste 11 Noroeste 0 952.6 -- 79
2020-11-17 20:00:00 13.8 5 Oeste 11 Noroeste 0 952.3 -- 79
2020-11-17 19:00:00 15 5 Noroeste 13 Noroeste 0 951.8 -- 75
2020-11-17 18:00:00 16.5 3 Noroeste 10 Norte 0 951.4 -- 72
2020-11-17 17:00:00 19.2 5 Nordeste 12 Este 0 951.3 -- 59
2020-11-17 16:00:00 19.9 6 Este 12 Este 0 951.2 -- 57
2020-11-17 15:00:00 19.9 4 Este 15 Este 0 951.3 -- 57
2020-11-17 14:00:00 20 7 Nordeste 16 Este 0 951.7 -- 56
2020-11-17 13:00:00 19.9 8 Este 17 Este 0 952.4 -- 58
2020-11-17 12:00:00 19.1 6 Este 12 Este 0 952.9 -- 58
2020-11-17 11:00:00 17.9 3 Sudoeste 14 Oeste 0 953 -- 62
2020-11-17 10:00:00 13.6 9 Oeste 15 Oeste 0 953.1 -- 75
2020-11-17 09:00:00 11.6 10 Oeste 18 Oeste 0 952.4 -- 80
2020-11-17 08:00:00 9.1 10 Oeste 18 Oeste 0 951.8 -- 90
2020-11-17 07:00:00 9 2 Sudoeste 16 Oeste 0 951.5 -- 88
2020-11-17 06:00:00 10 10 Oeste 21 Oeste 0 951.3 -- 86
2020-11-17 05:00:00 10.5 9 Oeste 18 Oeste 0 951.3 -- 86
2020-11-17 04:00:00 11.3 8 Oeste 14 Oeste 0 951.3 -- 86
2020-11-17 03:00:00 11.2 5 Oeste 14 Oeste 0 951.4 -- 86
2020-11-17 02:00:00 11.6 6 Sudoeste 16 Oeste 0 951.4 -- 85
2020-11-17 01:00:00 12.3 8 Oeste 12 Oeste 0 951.5 -- 85
2020-11-17 00:00:00 12.4 5 Sudoeste 9 Oeste 0 951.5 -- 86
2020-11-16 23:00:00 12.9 5 Noroeste 10 Noroeste 0 951.5 -- 85
2020-11-16 22:00:00 13 3 Noroeste 7 Noroeste 0 951.3 -- 86
2020-11-16 21:00:00 13.7 4 Noroeste 7 Este 0 951.2 -- 84
2020-11-16 20:00:00 14.4 4 Noroeste 8 Norte 0 950.7 -- 82
2020-11-16 19:00:00 15.9 5 Norte 9 Norte 0 949.8 -- 77
2020-11-16 18:00:00 17.9 5 Norte 13 Este 0 949 -- 69
2020-11-16 17:00:00 20.2 6 Este 15 Este 0 948.4 -- 58
2020-11-16 16:00:00 21.2 9 Este 18 Este 0 948.1 -- 54
2020-11-16 15:00:00 21.2 8 Sudeste 22 Este 0 947.8 -- 55
2020-11-16 14:00:00 21.8 11 Este 23 Nordeste 0 948.2 -- 52
2020-11-16 13:00:00 21.9 6 Norte 24 Nordeste 0 949 -- 42
2020-11-16 12:00:00 21.8 6 Este 15 Este 0 949.8 -- 48
2020-11-16 11:00:00 20.5 5 Este 13 Este 0 949.7 -- 51
2020-11-16 10:00:00 19.1 4 Sudoeste 13 Sudoeste 0 949.1 -- 55
2020-11-16 09:00:00 15.9 9 Sudoeste 14 Oeste 0 948.6 -- 63
2020-11-16 08:00:00 11 4 Sudoeste 8 Sudoeste 0 947.8 -- 83
2020-11-16 07:00:00 12.1 4 Oeste 9 Oeste 0 947.2 -- 79
2020-11-16 06:00:00 14.1 5 Oeste 14 Oeste 0 947.1 -- 70
2020-11-16 05:00:00 13.7 7 Oeste 12 Oeste 0 947.2 -- 73
2020-11-16 04:00:00 15.1 6 Oeste 20 Oeste 0 947.5 -- 67
2020-11-16 03:00:00 14.9 4 Sur 18 Oeste 0 947.7 -- 67
2020-11-16 02:00:00 14.5 10 Oeste 15 Oeste 0 948.3 -- 68
2020-11-16 01:00:00 14.6 9 Sudoeste 15 Sudoeste 0 948.3 -- 67
2020-11-16 00:00:00 14.7 12 Sudoeste 19 Oeste 0 948.6 -- 67
2020-11-15 23:00:00 15.4 9 Oeste 15 Oeste 0 948.9 -- 64
2020-11-15 22:00:00 14.6 9 Oeste 15 Oeste 0 949.1 -- 68
2020-11-15 21:00:00 12.7 3 Oeste 8 Sudoeste 0 949 -- 81
2020-11-15 20:00:00 14.6 5 Sudoeste 9 Sudoeste 0 948.9 -- 75
2020-11-15 19:00:00 15.6 5 Noroeste 13 Oeste 0 948.4 -- 72
2020-11-15 18:00:00 17.7 3 Oeste 8 Este 0 947.7 -- 70
2020-11-15 17:00:00 20.8 5 Este 12 Este 0 947.3 -- 55
2020-11-15 16:00:00 21.5 5 Nordeste 19 Nordeste 0 946.9 -- 53
2020-11-15 15:00:00 21.4 9 Nordeste 21 Nordeste 0 947 -- 51
2020-11-15 14:00:00 23.1 10 Nordeste 21 Este 0 947.1 -- 43
2020-11-15 13:00:00 21.9 10 Sudoeste 18 Oeste 0 947.8 -- 44
2020-11-15 12:00:00 19.9 7 Sur 20 Sur 0 948.7 -- 55
2020-11-15 11:00:00 18.5 3 Sudoeste 13 Oeste 0 949 -- 57
2020-11-15 10:00:00 15.5 10 Sudoeste 17 Sudoeste 0 948.8 -- 67
2020-11-15 09:00:00 12.5 9 Sudoeste 23 Oeste 0 948.7 -- 74
2020-11-15 08:00:00 10.6 15 Oeste 24 Sudoeste 0 947.9 -- 80
2020-11-15 07:00:00 10.6 8 Sudoeste 23 Sudoeste 0 947.5 -- 80
2020-11-15 06:00:00 9.7 5 Sudoeste 14 Oeste 0 947.5 -- 86
2020-11-15 05:00:00 10.9 5 Oeste 18 Oeste 0 947.3 -- 84
2020-11-15 04:00:00 11.9 12 Oeste 17 Oeste 0 947.6 -- 85
2020-11-15 03:00:00 11.2 6 Oeste 13 Oeste 0 947.8 -- 89
2020-11-15 02:00:00 11.1 3 Noroeste 9 Oeste 0 947.5 -- 90
2020-11-15 01:00:00 12.3 4 Oeste 7 Noroeste 0 947.8 -- 89
2020-11-15 00:00:00 13.4 3 Sudoeste 8 Sudoeste 0 948.1 -- 89
2020-11-14 23:00:00 13.9 4 Sudoeste 6 Sudoeste 0 948.2 -- 89
2020-11-14 22:00:00 13.9 0 Calma 5 Este 0 947.9 -- 89
2020-11-14 21:00:00 14.4 4 Sudoeste 5 Oeste 0 947.6 -- 88
2020-11-14 20:00:00 14.7 0 Calma 4 Sur 0 947.5 -- 87
2020-11-14 19:00:00 15.2 0 Calma 5 Nordeste 0 947 -- 85
2020-11-14 18:00:00 15.6 2 Nordeste 7 Este 0 946.7 -- 83
2020-11-14 17:00:00 16.3 4 Este 12 Este 0 946.5 -- 79
2020-11-14 16:00:00 16.7 6 Este 14 Nordeste 0 946.3 -- 77
2020-11-14 15:00:00 16.9 6 Nordeste 12 Este 0 946.4 -- 77
2020-11-14 14:00:00 18.3 4 Sudoeste 17 Sur 0 946.5 -- 67
2020-11-14 13:00:00 17.1 9 Sudoeste 15 Sudoeste 0 947.1 -- 72
2020-11-14 12:00:00 15.8 5 Oeste 14 Sudoeste 0.4 947.9 -- 80
2020-11-14 11:00:00 15.3 7 Oeste 15 Oeste 0 948.1 -- 80
2020-11-14 10:00:00 13.8 4 Sudoeste 10 Sudoeste 0 947.9 -- 88
2020-11-14 09:00:00 12.7 6 Sudoeste 11 Sudoeste 0 947.7 -- 89
2020-11-14 08:00:00 12.1 5 Sudoeste 10 Oeste 0.2 947.2 -- 89
2020-11-14 07:00:00 12.2 6 Oeste 8 Oeste 0 946.8 -- 89
2020-11-14 06:00:00 11.9 2 Nordeste 3 Este 0 946.7 -- 88
2020-11-14 05:00:00 11.8 2 Oeste 4 Norte 0 946.6 -- 87
2020-11-14 04:00:00 11.9 2 Sudoeste 11 Oeste 0 946.8 -- 85
2020-11-14 03:00:00 11.9 4 Oeste 6 Noroeste 0 947.2 -- 86
2020-11-14 02:00:00 13 4 Nordeste 15 Oeste 0 947.5 -- 84
2020-11-14 01:00:00 13.1 8 Oeste 17 Oeste 0 947.7 -- 84
2020-11-14 00:00:00 13.2 9 Oeste 15 Oeste 0 947.7 -- 83
2020-11-13 23:00:00 13.4 5 Sudoeste 16 Oeste 0 947.7 -- 83
2020-11-13 22:00:00 14.2 7 Oeste 17 Oeste 0 947.4 -- 80
2020-11-13 21:00:00 14.5 11 Oeste 16 Oeste 0 947 -- 78
2020-11-13 20:00:00 14.6 8 Oeste 13 Sudoeste 0 946.8 -- 76
2020-11-13 19:00:00 14 6 Noroeste 9 Noroeste 0 946.3 -- 78
2020-11-13 18:00:00 15.5 3 Noroeste 10 Norte 0 946 -- 72
2020-11-13 17:00:00 17.6 4 Nordeste 14 Nordeste 0 945.6 -- 63
2020-11-13 16:00:00 18 7 Nordeste 19 Este 0 945.5 -- 61
2020-11-13 15:00:00 18.8 8 Este 17 Este 0 945.5 -- 57
2020-11-13 14:00:00 19 6 Este 13 Este 0 946 -- 53
2020-11-13 13:00:00 18.7 5 Este 11 Este 0 946.6 -- 56
2020-11-13 12:00:00 18 5 Sudeste 13 Sudeste 0 947.2 -- 60
2020-11-13 11:00:00 16.8 4 Sudeste 9 Sudeste 0 947.4 -- 65
2020-11-13 10:00:00 14.2 3 Sur 9 Sudoeste 0 947.5 -- 79
2020-11-13 09:00:00 11.3 4 Sudoeste 6 Oeste 0 947.2 -- 86
2020-11-13 08:00:00 10.5 2 Sudoeste 5 Sudoeste 0 946.6 -- 89
2020-11-13 07:00:00 10.5 0 Calma 5 Sudoeste 0 946.2 -- 88
2020-11-13 06:00:00 10.7 3 Oeste 6 Sudoeste 0 946.2 -- 88
2020-11-13 05:00:00 11 0 Calma 6 Oeste 0 945.9 -- 86
2020-11-13 04:00:00 11.3 3 Noroeste 6 Este 0 946.3 -- 83
2020-11-13 03:00:00 11 3 Oeste 17 Oeste 0 946.5 -- 83
2020-11-13 02:00:00 10.7 12 Oeste 18 Oeste 0 946.9 -- 80
2020-11-13 01:00:00 10.9 4 Oeste 9 Oeste 0 947.3 -- 84
2020-11-13 00:00:00 10.1 3 Oeste 8 Oeste 0 947.2 -- 88
2020-11-12 23:00:00 10.1 4 Oeste 5 Oeste 0 947.2 -- 87
2020-11-12 22:00:00 10.4 4 Noroeste 7 Oeste 0 947.3 -- 85
2020-11-12 21:00:00 11 4 Noroeste 9 Noroeste 0 947.3 -- 83
2020-11-12 20:00:00 11.5 5 Norte 10 Norte 0 947.3 -- 78
2020-11-12 19:00:00 11.9 4 Norte 8 Norte 0 947.1 -- 76
2020-11-12 18:00:00 13.7 3 Norte 17 Este 0 946.8 -- 65
2020-11-12 17:00:00 15.8 10 Este 18 Este 0 946.5 -- 55
2020-11-12 16:00:00 16.4 10 Este 19 Este 0 946.4 -- 50
2020-11-12 15:00:00 17.2 7 Este 16 Este 0 946.4 -- 50
2020-11-12 14:00:00 16.8 7 Este 17 Este 0 947.1 -- 53
2020-11-12 13:00:00 16.5 8 Este 16 Este 0 947.9 -- 52
2020-11-12 12:00:00 16.3 6 Este 11 Este 0 948.9 -- 51
2020-11-12 11:00:00 15.1 3 Sudeste 9 Este 0 949.2 -- 62
2020-11-12 10:00:00 12.2 3 Este 10 Oeste 0 948.9 -- 70
2020-11-12 09:00:00 6.7 4 Noroeste 22 Sudoeste 0 948.7 -- 86
2020-11-12 08:00:00 5.8 6 Oeste 17 Sudoeste 0 948.5 -- 87
2020-11-12 07:00:00 6.6 9 Oeste 15 Oeste 0 948.4 -- 87
2020-11-12 06:00:00 5.9 7 Oeste 12 Oeste 0 948.5 -- 89
2020-11-12 05:00:00 5.7 4 Oeste 17 Oeste 0 948.6 -- 88
2020-11-12 04:00:00 6.9 10 Oeste 16 Oeste 0 948.7 -- 89
2020-11-12 03:00:00 6.6 5 Oeste 9 Sudoeste 0 949.1 -- 90
2020-11-12 02:00:00 7.1 0 Calma 7 Oeste 0 949.5 -- 89
2020-11-12 01:00:00 8.2 0 Calma 12 Oeste 0 949.9 -- 87
2020-11-12 00:00:00 9.1 8 Oeste 13 Oeste 0 950 -- 86
2020-11-11 23:00:00 10 7 Oeste 10 Sudoeste 0 950.2 -- 85
2020-11-11 22:00:00 11.6 6 Sudoeste 14 Oeste 0 949.9 -- 82
2020-11-11 21:00:00 12 8 Oeste 17 Oeste 0 949.7 -- 82
2020-11-11 20:00:00 11.3 5 Oeste 10 Noroeste 0 949.6 -- 81
2020-11-11 19:00:00 12 5 Noroeste 9 Noroeste 0 949.3 -- 80
2020-11-11 18:00:00 13.9 5 Norte 13 Este 0 948.9 -- 73
2020-11-11 17:00:00 15.9 8 Este 15 Este 0 948.7 -- 63
2020-11-11 16:00:00 16.9 9 Este 18 Sudeste 0 948.5 -- 57
2020-11-11 15:00:00 17.2 5 Sudeste 17 Sudeste 0 948.9 -- 54
2020-11-11 14:00:00 17.6 6 Sudeste 21 Sur 0 949.3 -- 55
2020-11-11 13:00:00 17.3 10 Sur 19 Sur 0 950.3 -- 52
2020-11-11 12:00:00 15.3 6 Sudoeste 13 Sudoeste 0 951.2 -- 65
2020-11-11 11:00:00 15.4 5 Sur 14 Sur 0 951.6 -- 66
2020-11-11 10:00:00 12.2 8 Sudoeste 14 Sudoeste 0 951.7 -- 78
2020-11-11 09:00:00 9.9 6 Oeste 9 Sudoeste 0 951.9 -- 88
2020-11-11 08:00:00 9.3 6 Sudoeste 11 Oeste 0 951.5 -- 91
2020-11-11 07:00:00 9.2 3 Oeste 10 Sudoeste 0 951.6 -- 92
2020-11-11 06:00:00 8.8 5 Oeste 8 Sudoeste 0 951.7 -- 91
2020-11-11 05:00:00 7.4 2 Oeste 5 Sudoeste 0 951.8 -- 90
2020-11-11 04:00:00 8 3 Oeste 6 Sudoeste 0 951.9 -- 89
2020-11-11 03:00:00 9 3 Noroeste 5 Sudeste 0 952 -- 88
2020-11-11 02:00:00 10.7 5 Sudoeste 9 Sudoeste 0 952.1 -- 87
2020-11-11 01:00:00 11.8 3 Sudoeste 9 Oeste 0 952.4 -- 86
2020-11-11 00:00:00 12.3 3 Oeste 8 Sudoeste 0 952.4 -- 85
2020-11-10 23:00:00 12.6 3 Sudoeste 5 Noroeste 0 952.4 -- 86
2020-11-10 22:00:00 12.4 2 Noroeste 11 Norte 0 952.5 -- 87
2020-11-10 21:00:00 13 5 Nordeste 13 Nordeste 0 952.1 -- 85
2020-11-10 20:00:00 14.2 9 Nordeste 19 Nordeste 0 951.9 -- 75
2020-11-10 19:00:00 13.5 5 Noroeste 9 Noroeste 0 950.9 -- 69
2020-11-10 18:00:00 14.8 4 Noroeste 11 Este 0 950.6 -- 65
2020-11-10 17:00:00 17.4 6 Este 18 Este 0 950.3 -- 51
2020-11-10 16:00:00 18.1 5 Norte 19 Nordeste 0 950.1 -- 49
2020-11-10 15:00:00 18.3 9 Nordeste 19 Nordeste 0 950.1 -- 49
2020-11-10 14:00:00 18.5 11 Nordeste 19 Este 0 950.4 -- 48
2020-11-10 13:00:00 18.4 9 Nordeste 21 Nordeste 0 951 -- 51
2020-11-10 12:00:00 18.2 8 Este 17 Este 0 951.5 -- 53
2020-11-10 11:00:00 16.3 5 Sur 10 Sur 0 951.9 -- 62
2020-11-10 10:00:00 15.7 5 Sudeste 8 Sudeste 0 951.7 -- 66
2020-11-10 09:00:00 11.6 0 Calma 9 Oeste 0 951.4 -- 87
2020-11-10 08:00:00 9.7 6 Sudoeste 13 Oeste 0 950.7 -- 90
2020-11-10 07:00:00 9.7 2 Oeste 10 Oeste 0 950.1 -- 89
2020-11-10 06:00:00 10.3 3 Oeste 8 Oeste 0 949.8 -- 88
2020-11-10 05:00:00 10.4 3 Sudoeste 6 Oeste 0 949.6 -- 87
2020-11-10 04:00:00 10.3 0 Calma 9 Noroeste 0 949.6 -- 86
2020-11-10 03:00:00 10.7 4 Noroeste 10 Sudoeste 0 949.7 -- 85
2020-11-10 02:00:00 10.8 3 Oeste 6 Oeste 0 949.7 -- 85
2020-11-10 01:00:00 11.8 3 Oeste 9 Oeste 0 949.9 -- 82
2020-11-10 00:00:00 11.5 6 Oeste 8 Oeste 0 950 -- 84
2020-11-09 23:00:00 11.2 3 Oeste 5 Oeste 0 950 -- 83
2020-11-09 22:00:00 11.6 3 Oeste 7 Nordeste 0 950 -- 80
2020-11-09 21:00:00 13.5 5 Oeste 10 Oeste 0 949.4 -- 70
2020-11-09 20:00:00 13.9 4 Oeste 10 Oeste 0 949.1 -- 70
2020-11-09 19:00:00 15.9 5 Oeste 12 Oeste 0 948.5 -- 57
2020-11-09 18:00:00 15.8 3 Noroeste 5 Oeste 0 947.9 -- 65
2020-11-09 17:00:00 17.7 5 Nordeste 13 Este 0 947.5 -- 49
2020-11-09 16:00:00 19.1 8 Este 15 Este 0 947.2 -- 42
2020-11-09 15:00:00 19.1 8 Este 17 Este 0 947.3 -- 41
2020-11-09 14:00:00 19.4 7 Este 15 Este 0 947.6 -- 42
2020-11-09 13:00:00 19.5 6 Este 16 Sudeste 0 948.2 -- 45
2020-11-09 12:00:00 19 8 Este 13 Este 0 948.9 -- 46
2020-11-09 11:00:00 17.9 4 Sudeste 11 Sudoeste 0 948.9 -- 45
2020-11-09 10:00:00 14.8 5 Sudoeste 15 Sudoeste 0 948.9 -- 59
2020-11-09 09:00:00 10 5 Sudoeste 15 Oeste 0 948.7 -- 80
2020-11-09 08:00:00 7.8 8 Oeste 18 Oeste 0 948 -- 86
2020-11-09 07:00:00 8.2 11 Oeste 21 Oeste 0 947.6 -- 84
2020-11-09 06:00:00 8.2 6 Oeste 13 Sudoeste 0 947.5 -- 88
2020-11-09 05:00:00 8.7 7 Oeste 17 Oeste 0 947.5 -- 86
2020-11-09 04:00:00 8.6 10 Oeste 17 Sudoeste 0 947.4 -- 86
2020-11-09 03:00:00 8.6 11 Oeste 17 Oeste 0 947.8 -- 86
2020-11-09 02:00:00 9.2 14 Oeste 19 Oeste 0 947.8 -- 86
2020-11-09 01:00:00 9.3 9 Oeste 18 Oeste 0 948.3 -- 85
2020-11-09 00:00:00 9.4 6 Sudoeste 14 Oeste 0 948.3 -- 86
2020-11-08 23:00:00 10.7 10 Oeste 15 Oeste 0 948.2 -- 86
2020-11-08 22:00:00 11.2 8 Sudoeste 14 Oeste 0 948.2 -- 83
2020-11-08 21:00:00 11.5 7 Oeste 11 Sudoeste 0 948 -- 82
2020-11-08 20:00:00 11.8 4 Oeste 12 Noroeste 0 948 -- 80
2020-11-08 19:00:00 13.1 6 Noroeste 11 Noroeste 0 947.9 -- 77
2020-11-08 18:00:00 14.5 4 Noroeste 8 Este 0 947.6 -- 74
2020-11-08 17:00:00 16.6 7 Este 11 Sudeste 0 947.5 -- 62
2020-11-08 16:00:00 17.4 4 Este 14 Nordeste 0 947.6 -- 59
2020-11-08 15:00:00 17.4 4 Nordeste 14 Este 0 947.8 -- 57
2020-11-08 14:00:00 17.6 6 Nordeste 15 Este 0 948.2 -- 55
2020-11-08 13:00:00 18.5 9 Este 16 Este 0 948.8 -- 52
2020-11-08 12:00:00 17.5 6 Este 11 Este 0 949.8 -- 53
2020-11-08 11:00:00 17.6 5 Sudeste 11 Este 0 950 -- 50
2020-11-08 10:00:00 14 4 Sudoeste 11 Sudoeste 0 950.1 -- 62
2020-11-08 09:00:00 9.6 6 Oeste 22 Sudoeste 0 950 -- 74
2020-11-08 08:00:00 6.6 5 Oeste 19 Oeste 0 949.5 -- 83
2020-11-08 07:00:00 6.2 6 Oeste 20 Sudoeste 0 949.4 -- 84
2020-11-08 06:00:00 6.9 10 Oeste 21 Sudoeste 0 949.5 -- 81
2020-11-08 05:00:00 7 9 Oeste 14 Oeste 0 949.4 -- 83
2020-11-08 04:00:00 6.6 6 Sudoeste 12 Oeste 0 949.6 -- 87
2020-11-08 03:00:00 7.3 5 Oeste 17 Oeste 0 949.9 -- 83
2020-11-08 02:00:00 7.5 3 Oeste 17 Oeste 0 949.8 -- 82
2020-11-08 01:00:00 8.7 5 Oeste 22 Oeste 0 950.2 -- 76
2020-11-08 00:00:00 9.2 13 Oeste 19 Oeste 0 950 -- 73
2020-11-07 23:00:00 9.8 12 Oeste 20 Oeste 0 950 -- 71
2020-11-07 22:00:00 10.7 12 Oeste 17 Oeste 0 949.9 -- 70
2020-11-07 21:00:00 12.1 9 Oeste 13 Oeste 0 949.6 -- 66
2020-11-07 20:00:00 11.7 3 Nordeste 12 Noroeste 0 949.2 -- 79
2020-11-07 19:00:00 13.3 5 Oeste 12 Noroeste 0 948.6 -- 77
2020-11-07 18:00:00 15.2 4 Noroeste 14 Este 0 947.9 -- 72
2020-11-07 17:00:00 17.9 7 Este 19 Este 0 947.2 -- 58
2020-11-07 16:00:00 17.5 10 Nordeste 28 Nordeste 0 946.9 -- 62
2020-11-07 15:00:00 18.7 15 Nordeste 32 Nordeste 0 946.1 -- 59
2020-11-07 14:00:00 21 13 Sur 37 Sudoeste 0 945.8 -- 41
2020-11-07 13:00:00 18.8 18 Sudoeste 42 Sudoeste 0 945.6 -- 45
2020-11-07 12:00:00 19.6 23 Sudoeste 44 Oeste 0 945.9 -- 45
2020-11-07 11:00:00 18.5 14 Sudoeste 28 Sudoeste 0 945.4 -- 52
2020-11-07 10:00:00 15.9 9 Sudoeste 19 Oeste 0 945 -- 70
2020-11-07 09:00:00 12.1 11 Oeste 23 Oeste 0 944.4 -- 82
2020-11-07 08:00:00 11.1 13 Oeste 20 Oeste 0 943.8 -- 90
2020-11-07 07:00:00 10.9 4 Oeste 11 Noroeste 0 943.1 -- 90
2020-11-07 06:00:00 11.6 8 Oeste 22 Sur 0.4 941.8 -- 89
2020-11-07 05:00:00 12 10 Sudoeste 53 Sudoeste 2 942.6 -- 84
2020-11-07 04:00:00 13.6 21 Oeste 46 Sudoeste 1 942.9 -- 82
2020-11-07 03:00:00 15 4 Norte 10 Noroeste 0 941.8 -- 79
2020-11-07 02:00:00 14.9 3 Noroeste 8 Norte 0 941.3 -- 78
2020-11-07 01:00:00 15.6 5 Norte 10 Nordeste 0 941.5 -- 72
2020-11-07 00:00:00 15 5 Norte 11 Norte 0 941.9 -- 74
2020-11-06 23:00:00 15.1 4 Noroeste 8 Nordeste 0 942.3 -- 77
2020-11-06 22:00:00 15.9 4 Norte 13 Nordeste 0 942.2 -- 75
2020-11-06 21:00:00 16.3 6 Nordeste 13 Noroeste 0 942.8 -- 72
2020-11-06 20:00:00 15.4 5 Norte 9 Norte 0 943.6 -- 82
2020-11-06 19:00:00 15.8 4 Norte 12 Nordeste 0 943.5 -- 82
2020-11-06 18:00:00 17.1 5 Nordeste 18 Nordeste 0 943.4 -- 76
2020-11-06 17:00:00 18.2 10 Nordeste 18 Nordeste 0 943.5 -- 72
2020-11-06 16:00:00 19 10 Este 19 Nordeste 0 943.9 -- 68
2020-11-06 15:00:00 19.3 10 Este 21 Este 0 944 -- 69
2020-11-06 14:00:00 18.1 5 Nordeste 14 Nordeste 0 944.7 -- 72
2020-11-06 13:00:00 17.5 5 Nordeste 13 Sudeste 0 945.9 -- 73
2020-11-06 12:00:00 16.7 4 Nordeste 16 Nordeste 0 946.7 -- 79
2020-11-06 11:00:00 15.2 3 Norte 10 Noroeste 0 946.7 0.9 85
2020-11-06 10:00:00 14.2 4 Sur 10 Noroeste 0 946.7 -- 89
2020-11-06 09:00:00 13.2 3 Norte 6 Noroeste 0 946.4 -- 91
2020-11-06 08:00:00 12.9 3 Sur 7 Oeste 0 945.8 -- 91
2020-11-06 07:00:00 12.8 3 Oeste 6 Oeste 0 945.7 -- 92
2020-11-06 06:00:00 12.8 2 Este 9 Oeste 0 945.5 -- 92
2020-11-06 05:00:00 12.5 4 Sudoeste 7 Sur 0 945.8 -- 92
2020-11-06 04:00:00 12.1 3 Sur 8 Sudeste 0 945.8 -- 91
2020-11-06 03:00:00 11.5 3 Noroeste 5 Noroeste 0 946 -- 91
2020-11-06 02:00:00 12.2 3 Oeste 8 Noroeste 0 945.8 -- 90
2020-11-06 01:00:00 12.6 4 Noroeste 9 Noroeste 0 946 -- 90
2020-11-06 00:00:00 13.8 4 Norte 9 Norte 0 946.2 -- 89
2020-11-05 23:00:00 14.1 4 Norte 9 Norte 0 946.3 -- 88
2020-11-05 22:00:00 14.1 3 Norte 11 Norte 0 946.3 -- 89
2020-11-05 21:00:00 14 6 Norte 11 Norte 0 945.9 -- 89
2020-11-05 20:00:00 14.1 6 Norte 12 Noroeste 0 945.8 -- 88
2020-11-05 19:00:00 15 4 Este 12 Nordeste 0 944.8 -- 87
2020-11-05 18:00:00 15.4 3 Norte 13 Nordeste 0 944.4 -- 86
2020-11-05 17:00:00 15.9 5 Nordeste 12 Nordeste 0.2 944.3 -- 81
2020-11-05 16:00:00 15.5 3 Noroeste 20 Sudeste 0 944 -- 85
2020-11-05 15:00:00 16 5 Sur 31 Este 0.2 944 -- 82
2020-11-05 14:00:00 16.5 12 Este 34 Este 0 943.9 -- 85
2020-11-05 13:00:00 15.6 18 Este 33 Este 0.8 944.6 -- 90
2020-11-05 12:00:00 14.9 9 Este 29 Nordeste 0 945.6 -- 91
2020-11-05 11:00:00 14.2 13 Nordeste 33 Este 12.8 945.9 -- 92
2020-11-05 10:00:00 13.4 10 Nordeste 23 Norte 12 946 -- 91
2020-11-05 09:00:00 14.1 11 Este 24 Este 0.2 945.6 -- 91
2020-11-05 08:00:00 13.6 7 Norte 20 Este 0.2 945 -- 92
2020-11-05 07:00:00 13.5 9 Este 20 Este 0.2 944.7 -- 92
2020-11-05 06:00:00 12.8 9 Norte 19 Nordeste 1.8 944.2 -- 91
2020-11-05 05:00:00 12.2 9 Este 31 Norte 4.6 944.2 -- 90
2020-11-05 04:00:00 11.7 10 Nordeste 28 Nordeste 0.8 944 -- 89
2020-11-05 03:00:00 12 10 Nordeste 28 Nordeste 0.2 944.1 -- 85
2020-11-05 02:00:00 12.4 9 Nordeste 18 Nordeste 0 944.3 -- 82
2020-11-05 01:00:00 12.2 6 Nordeste 14 Nordeste 0 944.9 -- 81
2020-11-05 00:00:00 12 6 Nordeste 19 Norte 0 945.1 -- 80
2020-11-04 23:00:00 11.8 8 Nordeste 20 Nordeste 0 945.1 -- 80
2020-11-04 22:00:00 11.4 7 Nordeste 19 Nordeste 0 944.8 -- 84
2020-11-04 21:00:00 11.4 9 Este 19 Este 0.2 944.8 -- 85
2020-11-04 20:00:00 11.6 8 Nordeste 23 Nordeste 0 943.7 -- 85
2020-11-04 19:00:00 12.3 8 Nordeste 26 Norte 0 943.3 -- 84
2020-11-04 18:00:00 13.7 9 Nordeste 31 Este 0 942.4 -- 81
2020-11-04 17:00:00 15.8 13 Este 27 Este 0 942.2 -- 72
2020-11-04 16:00:00 15.7 11 Este 23 Sudeste 0.6 942.1 -- 76
2020-11-04 15:00:00 17.8 13 Este 24 Este 0 942.3 -- 57
2020-11-04 14:00:00 17.4 11 Este 23 Este 0 943 -- 59
2020-11-04 13:00:00 17.1 9 Este 18 Este 0 943.8 -- 60
2020-11-04 12:00:00 17.7 5 Este 12 Nordeste 0 944.6 -- 57
2020-11-04 11:00:00 16.5 5 Oeste 13 Sudoeste 0 945.3 0.1 62
2020-11-04 10:00:00 15.9 3 Sudoeste 9 Oeste 0 945.5 -- 64
2020-11-04 09:00:00 14.2 2 Nordeste 8 Oeste 0 945.1 -- 74
2020-11-04 08:00:00 12.2 4 Oeste 11 Oeste 0 945.2 -- 80
2020-11-04 07:00:00 11.7 5 Oeste 10 Sudoeste 0 945.4 -- 81
2020-11-04 06:00:00 11.5 6 Oeste 13 Oeste 0 945.9 -- 84
2020-11-04 05:00:00 11.5 9 Oeste 14 Oeste 0 946.4 -- 88
2020-11-04 04:00:00 11.5 4 Noroeste 6 Noroeste 0 946.6 -- 86
2020-11-04 03:00:00 12.5 3 Norte 7 Sudoeste 0 947.4 -- 83
2020-11-04 02:00:00 14.2 6 Sudoeste 13 Sudoeste 0 948.3 -- 78
2020-11-04 01:00:00 13.6 3 Noroeste 8 Nordeste 0 949 -- 80
2020-11-04 00:00:00 14.3 3 Nordeste 11 Nordeste 0 949.5 -- 79
2020-11-03 23:00:00 14.5 4 Norte 10 Nordeste 0 949.6 -- 81
2020-11-03 22:00:00 14.6 7 Nordeste 17 Este 0 950 -- 82
2020-11-03 21:00:00 14.7 8 Nordeste 15 Nordeste 0 950 -- 83
2020-11-03 20:00:00 14.9 5 Norte 15 Norte 0 949.6 -- 78
2020-11-03 19:00:00 15.9 6 Nordeste 15 Nordeste 0 948.9 -- 75
2020-11-03 18:00:00 17.3 6 Nordeste 18 Este 0 948.3 -- 67
2020-11-03 17:00:00 18.9 10 Este 21 Este 0 947.9 -- 59
2020-11-03 16:00:00 20.1 12 Este 23 Nordeste 0 947.9 -- 53
2020-11-03 15:00:00 21 13 Este 23 Este 0 948 -- 44
2020-11-03 14:00:00 22.9 10 Este 21 Sudeste 0 948.1 -- 31
2020-11-03 13:00:00 23.3 11 Este 17 Este 0 948.8 -- 29
2020-11-03 12:00:00 22.5 8 Este 14 Nordeste 0 949.5 -- 30
2020-11-03 11:00:00 21.4 6 Este 13 Este 0 949.6 -- 32
2020-11-03 10:00:00 19.4 3 Este 15 Oeste 0 949.5 -- 37
2020-11-03 09:00:00 14.1 9 Oeste 19 Oeste 0 949.2 -- 49
2020-11-03 08:00:00 8.8 4 Oeste 22 Oeste 0 948.6 -- 68
2020-11-03 07:00:00 9.8 9 Oeste 18 Oeste 0 948.3 -- 61
2020-11-03 06:00:00 9.3 8 Oeste 22 Oeste 0 948.3 -- 65
2020-11-03 05:00:00 11 13 Oeste 22 Oeste 0 948.2 -- 57
2020-11-03 04:00:00 9.9 8 Oeste 19 Sudoeste 0 948.3 -- 62
2020-11-03 03:00:00 11.8 14 Oeste 20 Oeste 0 948.6 -- 55
2020-11-03 02:00:00 11.1 7 Oeste 15 Oeste 0 948.5 -- 59
2020-11-03 01:00:00 11.3 8 Oeste 15 Oeste 0 948.9 -- 59
2020-11-03 00:00:00 12.4 9 Oeste 19 Sudoeste 0 948.9 -- 55
2020-11-02 23:00:00 14.5 9 Sudoeste 21 Sudoeste 0 948.8 -- 48
2020-11-02 22:00:00 15.2 7 Sudoeste 14 Sudoeste 0 948.9 -- 46
2020-11-02 21:00:00 16.5 11 Oeste 15 Oeste 0 948.8 -- 45
2020-11-02 20:00:00 19.2 11 Oeste 17 Oeste 0 948.5 -- 41
2020-11-02 19:00:00 18.5 7 Oeste 13 Noroeste 0 948 -- 42
2020-11-02 18:00:00 21 4 Norte 13 Este 0 947.3 -- 35
2020-11-02 17:00:00 24.5 9 Este 16 Este 0 947.1 -- 25
2020-11-02 16:00:00 25.6 8 Este 18 Nordeste 0 947.1 -- 24
2020-11-02 15:00:00 25.7 8 Este 16 Este 0 947.3 -- 24
2020-11-02 14:00:00 26 7 Este 17 Este 0 947.9 -- 25
2020-11-02 13:00:00 25.5 7 Este 16 Nordeste 0 948.7 -- 25
2020-11-02 12:00:00 25.2 5 Este 10 Este 0 949.5 -- 26
2020-11-02 11:00:00 23.3 3 Sudeste 10 Sudoeste 0 949.8 -- 30
2020-11-02 10:00:00 19.3 9 Oeste 16 Sudoeste 0 949.8 -- 38
2020-11-02 09:00:00 14.4 7 Oeste 17 Oeste 0 949.7 -- 51
2020-11-02 08:00:00 10.1 8 Oeste 18 Sudoeste 0 949.1 -- 64
2020-11-02 07:00:00 9.4 5 Oeste 21 Oeste 0 948.8 -- 67
2020-11-02 06:00:00 11.1 15 Oeste 23 Sudoeste 0 948.6 -- 58
2020-11-02 05:00:00 11.6 10 Oeste 22 Oeste 0 948.7 -- 57
2020-11-02 04:00:00 11.8 10 Oeste 17 Oeste 0 948.8 -- 58
2020-11-02 03:00:00 11.6 8 Oeste 21 Sudoeste 0 949.1 -- 59
2020-11-02 02:00:00 10 6 Oeste 14 Oeste 0 949.4 -- 67
2020-11-02 01:00:00 11.1 3 Oeste 18 Oeste 0 949.7 -- 62
2020-11-02 00:00:00 13.6 12 Oeste 22 Sudoeste 0 949.9 -- 54
2020-11-01 23:00:00 13.5 7 Oeste 14 Oeste 0 950.2 -- 54
2020-11-01 22:00:00 15.9 10 Sudoeste 16 Oeste 0 949.8 -- 46
2020-11-01 21:00:00 18.2 9 Sudoeste 19 Oeste 0 949.7 -- 41
2020-11-01 20:00:00 19.3 9 Oeste 21 Oeste 0 949.6 -- 40
2020-11-01 19:00:00 19.1 8 Oeste 15 Oeste 0 949.4 -- 42
2020-11-01 18:00:00 20.5 3 Norte 9 Este 0 948.9 -- 31
2020-11-01 17:00:00 24.7 6 Este 15 Sudeste 0 948.6 -- 22
2020-11-01 16:00:00 25.2 6 Este 16 Este 0 948.7 -- 21
2020-11-01 15:00:00 25.6 10 Este 17 Este 0 949.1 -- 26
2020-11-01 14:00:00 25.7 8 Este 15 Este 0 949.5 -- 26
2020-11-01 13:00:00 25.4 6 Este 16 Este 0 950.3 -- 26
2020-11-01 12:00:00 24.6 8 Este 15 Este 0 951.1 -- 28
2020-11-01 11:00:00 23.8 4 Sudeste 13 Sudoeste 0 951.2 -- 30
2020-11-01 10:00:00 19.5 9 Sudoeste 18 Oeste 0 951.1 -- 41
2020-11-01 09:00:00 14.5 12 Oeste 22 Sudoeste 0 950.8 -- 53
2020-11-01 08:00:00 11.6 13 Oeste 22 Oeste 0 950.5 -- 62
2020-11-01 07:00:00 9.6 8 Oeste 19 Sudoeste 0 950.4 -- 70
2020-11-01 06:00:00 11.3 11 Oeste 21 Sudoeste 0 950.4 -- 63
2020-11-01 05:00:00 12.2 14 Sudoeste 23 Sudoeste 0 950.5 -- 59
2020-11-01 04:00:00 11.6 9 Oeste 21 Oeste 0 950.7 -- 62
2020-11-01 03:00:00 12.8 10 Oeste 23 Oeste 0 950.8 -- 57
2020-11-01 02:00:00 12.9 17 Oeste 24 Sudoeste 0 950.8 -- 56
2020-11-01 01:00:00 13.6 14 Sudoeste 24 Sudoeste 0 951 -- 55
2020-11-01 00:00:00 14.1 10 Oeste 23 Oeste 0 951.3 -- 52
2020-10-31 23:00:00 13.8 10 Oeste 17 Oeste 0 951.2 -- 54
2020-10-31 22:00:00 13.4 7 Oeste 12 Oeste 0 951.2 -- 57
2020-10-31 21:00:00 15.3 3 Oeste 12 Noroeste 0 950.7 -- 52
2020-10-31 20:00:00 16.9 9 Oeste 14 Oeste 0 950.2 -- 45
2020-10-31 19:00:00 16.8 4 Oeste 10 Noroeste 0 949.8 -- 47
2020-10-31 18:00:00 20.5 5 Noroeste 10 Este 0 949.5 -- 39
2020-10-31 17:00:00 23.7 7 Este 19 Este 0 949.5 -- 29
2020-10-31 16:00:00 24.4 9 Este 18 Este 0 949.4 -- 28
2020-10-31 15:00:00 24.3 10 Este 21 Este 0 949.4 -- 28
2020-10-31 14:00:00 23.9 10 Este 17 Sudeste 0 950 -- 32
2020-10-31 13:00:00 23.8 5 Este 13 Este 0 950.7 -- 31
2020-10-31 12:00:00 21.5 3 Sudeste 9 Este 0 951.4 -- 37
2020-10-31 11:00:00 20.8 4 Sudeste 8 Sudeste 0 951.7 -- 39
2020-10-31 10:00:00 17.8 3 Nordeste 16 Sudoeste 0 952 -- 47
2020-10-31 09:00:00 13.2 10 Oeste 19 Oeste 0 951.8 -- 58
2020-10-31 08:00:00 9.7 6 Oeste 18 Oeste 0 951.4 -- 70
2020-10-31 07:00:00 9.5 11 Oeste 21 Oeste 0 951.1 -- 70
2020-10-31 06:00:00 7.4 3 Noroeste 13 Oeste 0 950.9 -- 80
2020-10-31 05:00:00 9.3 9 Oeste 21 Oeste 0 950.8 -- 71
2020-10-31 04:00:00 9.4 10 Oeste 18 Oeste 0 950.8 -- 71
2020-10-31 03:00:00 9.4 7 Oeste 18 Oeste 0 951 -- 72
2020-10-31 02:00:00 8.4 5 Oeste 13 Sudoeste 0 951.3 -- 79
2020-10-31 01:00:00 10 8 Oeste 14 Sudoeste 0 951.5 -- 72
2020-10-31 00:00:00 11.3 6 Oeste 18 Sudoeste 0 951.8 -- 67
2020-10-30 23:00:00 11.9 9 Sudoeste 13 Sudoeste 0 951.9 -- 66
2020-10-30 22:00:00 11.4 6 Oeste 9 Sudoeste 0 951.6 -- 70
2020-10-30 21:00:00 12.8 3 Noroeste 10 Oeste 0 951.5 -- 64
2020-10-30 20:00:00 14.5 5 Noroeste 10 Noroeste 0 951.2 -- 58
2020-10-30 19:00:00 15.9 5 Noroeste 9 Noroeste 0 950.9 -- 54
2020-10-30 18:00:00 19.3 4 Norte 15 Nordeste 0 950.5 -- 46
2020-10-30 17:00:00 22.3 10 Este 17 Este 0 950.2 -- 37
2020-10-30 16:00:00 23.6 9 Este 17 Este 0 950.2 -- 35
2020-10-30 15:00:00 24 6 Este 14 Este 0 950.4 -- 34
2020-10-30 14:00:00 23.7 7 Este 17 Este 0 950.9 -- 36
2020-10-30 13:00:00 23.3 9 Este 18 Este 0 951.6 -- 36
2020-10-30 12:00:00 24.2 9 Sudoeste 17 Sudoeste 0 952.2 -- 31
2020-10-30 11:00:00 22.2 8 Sudoeste 15 Sudoeste 0 952.5 -- 38
2020-10-30 10:00:00 18.5 3 Sur 14 Sudoeste 0 952.7 -- 49
2020-10-30 09:00:00 12.8 9 Oeste 18 Oeste 0 952.6 -- 65
2020-10-30 08:00:00 7.3 6 Sudoeste 17 Oeste 0 952.2 -- 88
2020-10-30 07:00:00 8.2 8 Oeste 19 Oeste 0 952 -- 81
2020-10-30 06:00:00 9.1 12 Oeste 19 Oeste 0 951.9 -- 79
2020-10-30 05:00:00 8.7 11 Oeste 16 Oeste 0 952 -- 88
2020-10-30 04:00:00 7.9 2 Norte 15 Sudoeste 0 952.1 -- 86
2020-10-30 03:00:00 8.9 7 Oeste 20 Oeste 0 952.2 -- 82
2020-10-30 02:00:00 10.5 9 Oeste 17 Oeste 0 952.5 -- 77
2020-10-30 01:00:00 10.2 10 Oeste 15 Oeste 0 952.7 -- 82
2020-10-30 00:00:00 10.5 6 Oeste 13 Oeste 0 952.7 -- 77
2020-10-29 23:00:00 11.9 5 Sudoeste 13 Oeste 0 952.7 -- 70
2020-10-29 22:00:00 12.4 4 Oeste 11 Oeste 0 952.6 -- 71
2020-10-29 21:00:00 12.8 3 Noroeste 12 Noroeste 0 952.4 -- 68
2020-10-29 20:00:00 14.5 4 Noroeste 11 Norte 0 952 -- 63
2020-10-29 19:00:00 17.1 5 Norte 14 Nordeste 0 951.6 -- 54
2020-10-29 18:00:00 19.5 6 Nordeste 17 Este 0 950.9 -- 47
2020-10-29 17:00:00 22 9 Este 19 Este 0 950.5 -- 41
2020-10-29 16:00:00 22.8 7 Este 14 Este 0 950.2 -- 39
2020-10-29 15:00:00 22.5 7 Este 18 Nordeste 0 950.7 -- 40
2020-10-29 14:00:00 22.8 7 Este 16 Este 0 951.5 -- 40
2020-10-29 13:00:00 22.7 6 Este 14 Sudeste 0 952.2 -- 41
2020-10-29 12:00:00 21.3 6 Este 13 Sudeste 0 952.7 -- 44
2020-10-29 11:00:00 20.3 4 Este 9 Este 0 952.9 -- 46
2020-10-29 10:00:00 17.4 3 Sudoeste 14 Oeste 0 952.9 -- 54
2020-10-29 09:00:00 12 10 Sudoeste 16 Sudoeste 0 952.5 -- 69
2020-10-29 08:00:00 8.8 10 Sudoeste 15 Sudoeste 0 952 -- 87
2020-10-29 07:00:00 7.3 4 Sudoeste 11 Sudoeste 0 951.8 -- 90
2020-10-29 06:00:00 6.8 3 Oeste 8 Oeste 0 951.5 -- 89
2020-10-29 05:00:00 7.1 4 Oeste 10 Oeste 0 951.2 -- 87
2020-10-29 04:00:00 8.8 9 Oeste 21 Oeste 0 950.4 -- 81
2020-10-29 03:00:00 9.7 12 Oeste 22 Sudoeste 0 950.2 -- 76
2020-10-29 02:00:00 9.4 5 Oeste 14 Sudoeste 0 950.3 -- 79
2020-10-29 01:00:00 10.6 8 Oeste 17 Sudoeste 0 950.3 -- 76
2020-10-29 00:00:00 9.7 5 Oeste 9 Sudoeste 0 950.7 -- 82
2020-10-28 23:00:00 10.3 4 Oeste 9 Oeste 0 950.6 -- 78
2020-10-28 22:00:00 12.2 4 Oeste 16 Sudoeste 0 950.1 -- 72
2020-10-28 21:00:00 14.3 5 Oeste 11 Oeste 0 949.5 -- 64
2020-10-28 20:00:00 14.6 4 Sudoeste 10 Noroeste 0 948.9 -- 63
2020-10-28 19:00:00 15.6 5 Noroeste 9 Noroeste 0 948.3 -- 58
2020-10-28 18:00:00 18.8 4 Norte 16 Este 0 947.5 -- 47
2020-10-28 17:00:00 21.3 6 Nordeste 21 Nordeste 0 947.2 -- 36
2020-10-28 16:00:00 22 9 Este 20 Este 0 947.1 -- 31
2020-10-28 15:00:00 21.7 11 Nordeste 21 Este 0 947 -- 28
2020-10-28 14:00:00 22 9 Este 16 Este 0 947.2 -- 25
2020-10-28 13:00:00 21.8 7 Este 15 Este 0 947.8 -- 24
2020-10-28 12:00:00 19.7 6 Este 11 Sudeste 0 948.3 -- 26
2020-10-28 11:00:00 18.4 2 Sudeste 7 Sudeste 0 948.4 -- 29
2020-10-28 10:00:00 15.7 4 Este 8 Oeste 0 948.4 -- 34
2020-10-28 09:00:00 10.7 3 Oeste 19 Oeste 0 948 -- 51
2020-10-28 08:00:00 4.5 6 Oeste 18 Oeste 0 947.2 -- 71
2020-10-28 07:00:00 5.9 13 Oeste 20 Oeste 0 946.6 -- 62
2020-10-28 06:00:00 4.7 5 Sudoeste 13 Oeste 0 946.4 -- 69
2020-10-28 05:00:00 5.8 6 Oeste 14 Oeste 0 946.1 -- 63
2020-10-28 04:00:00 5.4 3 Oeste 18 Oeste 0 945.9 -- 64
2020-10-28 03:00:00 7.8 8 Oeste 17 Oeste 0 945.8 -- 52
2020-10-28 02:00:00 8.5 12 Oeste 19 Oeste 0 945.8 -- 47
2020-10-28 01:00:00 9.3 10 Oeste 20 Oeste 0 945.9 -- 44
2020-10-28 00:00:00 9.8 11 Oeste 18 Oeste 0 945.9 -- 43
2020-10-27 23:00:00 10.3 13 Oeste 22 Oeste 0 946 -- 42
2020-10-27 22:00:00 9.2 8 Sudoeste 11 Sudoeste 0 946 -- 47
2020-10-27 21:00:00 9.7 5 Oeste 12 Oeste 0 945.5 -- 51
2020-10-27 20:00:00 11.4 4 Noroeste 14 Oeste 0 945.1 -- 47
2020-10-27 19:00:00 12.6 5 Oeste 11 Noroeste 0 944.6 -- 41
2020-10-27 18:00:00 15.6 4 Norte 13 Nordeste 0 944.1 -- 35
2020-10-27 17:00:00 17.5 5 Nordeste 18 Nordeste 0 944 -- 27
2020-10-27 16:00:00 19 5 Sudeste 12 Este 0 943.9 -- 23
2020-10-27 15:00:00 18.9 6 Este 17 Este 0 944.2 -- 23
2020-10-27 14:00:00 19.1 7 Este 19 Nordeste 0 944.8 -- 24
2020-10-27 13:00:00 18.7 9 Este 21 Este 0 945.5 -- 25
2020-10-27 12:00:00 17.6 6 Sudeste 16 Sudeste 0 946.1 -- 29
2020-10-27 11:00:00 16.1 5 Sur 18 Sur 0 946.3 -- 34
2020-10-27 10:00:00 12.3 10 Sudoeste 22 Sudoeste 0 946.5 -- 43
2020-10-27 09:00:00 8 12 Sudoeste 22 Oeste 0 946.1 -- 54
2020-10-27 08:00:00 3.9 14 Oeste 24 Oeste 0 946.2 -- 69
2020-10-27 07:00:00 4.3 14 Oeste 22 Oeste 0 945.8 -- 71
2020-10-27 06:00:00 3.2 3 Noroeste 17 Sudoeste 0 945.9 -- 74
2020-10-27 05:00:00 4.3 5 Oeste 17 Oeste 0 945.5 -- 72
2020-10-27 04:00:00 5.3 10 Oeste 23 Oeste 0 945.6 -- 69
2020-10-27 03:00:00 3.7 5 Noroeste 18 Oeste 0 946 -- 76
2020-10-27 02:00:00 5.8 9 Oeste 17 Sudoeste 0 946.2 -- 68
2020-10-27 01:00:00 6.2 7 Oeste 17 Oeste 0 946.6 -- 66
2020-10-27 00:00:00 7.7 12 Oeste 17 Oeste 0 946.9 -- 61